createdAt,value
2022-08-12T00:02:03.400Z,23.30
2022-08-12T00:04:52.632Z,23.20
2022-08-12T00:07:38.723Z,22.90
2022-08-12T00:10:26.479Z,22.80
2022-08-12T00:13:13.037Z,22.70
2022-08-12T00:16:02.222Z,22.60
2022-08-12T00:18:47.977Z,22.40
2022-08-12T00:21:36.054Z,22.30
2022-08-12T00:24:21.787Z,22.30
2022-08-12T00:27:09.146Z,22.10
2022-08-12T00:29:55.212Z,22.10
2022-08-12T00:32:41.069Z,22.00
2022-08-12T00:35:36.991Z,21.90
2022-08-12T00:38:23.767Z,21.70
2022-08-12T00:41:09.692Z,21.70
2022-08-12T00:43:38.914Z,21.70
2022-08-12T00:46:24.573Z,21.80
2022-08-12T00:48:53.087Z,22.00
2022-08-12T00:51:21.149Z,22.50
2022-08-12T00:53:50.134Z,22.80
2022-08-12T00:56:19.499Z,22.90
2022-08-12T00:58:50.826Z,23.00
2022-08-12T01:01:20.223Z,23.00
2022-08-12T01:04:08.662Z,23.00
2022-08-12T01:06:55.587Z,22.90
2022-08-12T01:09:41.532Z,23.10
2022-08-12T01:12:12.898Z,23.20
2022-08-12T01:14:43.786Z,23.10
2022-08-12T01:17:11.863Z,23.10
2022-08-12T01:19:39.719Z,23.20
2022-08-12T01:22:23.558Z,23.20
2022-08-12T01:24:58.852Z,23.30
2022-08-12T01:27:28.322Z,23.50
2022-08-12T01:29:58.888Z,23.50
2022-08-12T01:32:29.387Z,23.50
2022-08-12T01:35:04.497Z,23.40
2022-08-12T01:37:36.703Z,23.40
2022-08-12T01:40:34.312Z,23.40
2022-08-12T01:43:03.965Z,23.30
2022-08-12T01:45:40.557Z,23.40
2022-08-12T01:48:30.097Z,23.30
2022-08-12T01:51:06.539Z,23.30
2022-08-12T01:53:50.313Z,23.20
2022-08-12T01:56:23.622Z,23.10
2022-08-12T01:59:13.185Z,23.00
2022-08-12T02:01:42.354Z,22.90
2022-08-12T02:04:34.492Z,22.80
2022-08-12T02:07:25.509Z,22.80
2022-08-12T02:10:50.903Z,22.70
2022-08-12T02:13:48.268Z,22.70
2022-08-12T02:16:18.097Z,22.70
2022-08-12T02:18:55.221Z,22.70
2022-08-12T02:21:36.719Z,22.60
2022-08-12T02:24:05.652Z,22.50
2022-08-12T02:26:37.356Z,22.50
2022-08-12T02:29:08.088Z,22.40
2022-08-12T02:31:38.153Z,22.40
2022-08-12T02:34:06.508Z,22.40
2022-08-12T02:36:35.385Z,22.30
2022-08-12T02:39:05.472Z,22.20
2022-08-12T02:41:35.785Z,22.20
2022-08-12T02:44:09.511Z,22.10
2022-08-12T02:46:38.463Z,22.10
2022-08-12T02:49:12.708Z,22.20
2022-08-12T02:51:44.146Z,22.20
2022-08-12T02:54:13.096Z,22.10
2022-08-12T02:56:42.188Z,22.10
2022-08-12T02:59:23.129Z,22.10
2022-08-12T03:01:54.317Z,22.00
2022-08-12T03:04:27.235Z,21.90
2022-08-12T03:07:05.309Z,21.80
2022-08-12T03:10:03.701Z,21.70
2022-08-12T03:12:25.743Z,21.50
2022-08-12T03:14:56.177Z,21.40
2022-08-12T03:17:30.335Z,21.40
2022-08-12T03:20:09.925Z,21.20
2022-08-12T03:22:41.037Z,21.10
2022-08-12T03:25:17.112Z,20.90
2022-08-12T03:27:51.553Z,20.80
2022-08-12T03:30:22.895Z,20.80
2022-08-12T03:32:52.966Z,20.70
2022-08-12T03:35:41.213Z,20.60
2022-08-12T03:38:12.200Z,20.40
2022-08-12T03:41:08.922Z,20.30
2022-08-12T03:44:03.423Z,20.10
2022-08-12T03:46:55.115Z,20.00
2022-08-12T03:49:40.772Z,20.10
2022-08-12T03:52:26.197Z,20.00
2022-08-12T03:55:11.703Z,19.90
2022-08-12T03:57:57.321Z,19.90
2022-08-12T04:00:26.464Z,19.80
2022-08-12T04:02:59.096Z,19.70
2022-08-12T04:05:54.490Z,19.60
2022-08-12T04:08:15.300Z,19.60
2022-08-12T04:10:57.125Z,19.70
2022-08-12T04:13:26.165Z,19.70
2022-08-12T04:15:54.291Z,19.70
2022-08-12T04:18:23.660Z,19.70
2022-08-12T04:20:52.325Z,19.80
2022-08-12T04:23:21.864Z,19.50
2022-08-12T04:25:49.744Z,19.30
2022-08-12T04:28:17.651Z,19.30
2022-08-12T04:30:45.514Z,19.20
2022-08-12T04:33:14.948Z,19.20
2022-08-12T04:35:44.099Z,19.30
2022-08-12T04:38:13.590Z,19.20
2022-08-12T04:40:41.736Z,19.20
2022-08-12T04:43:55.318Z,19.10
2022-08-12T04:45:58.552Z,18.90
2022-08-12T04:48:26.397Z,19.10
2022-08-12T04:50:57.751Z,19.00
2022-08-12T04:53:25.866Z,19.00
2022-08-12T04:55:54.334Z,19.00
2022-08-12T04:58:30.014Z,18.90
2022-08-12T05:00:58.210Z,18.90
2022-08-12T05:03:27.154Z,18.90
2022-08-12T05:05:56.584Z,18.80
2022-08-12T05:08:26.709Z,18.70
2022-08-12T05:10:55.363Z,18.60
2022-08-12T05:13:26.089Z,18.50
2022-08-12T05:16:05.288Z,18.50
2022-08-12T05:18:39.759Z,18.60
2022-08-12T05:21:08.999Z,18.50
2022-08-12T05:23:39.576Z,18.50
2022-08-12T05:26:07.712Z,18.50
2022-08-12T05:28:35.991Z,18.60
2022-08-12T05:31:04.667Z,18.60
2022-08-12T05:33:37.514Z,18.60
2022-08-12T05:36:08.495Z,18.60
2022-08-12T05:38:55.373Z,18.60
2022-08-12T05:41:24.459Z,18.70
2022-08-12T05:43:54.696Z,18.80
2022-08-12T05:46:23.375Z,18.90
2022-08-12T05:48:54.293Z,18.80
2022-08-12T05:51:24.718Z,18.90
2022-08-12T05:54:00.083Z,18.90
2022-08-12T05:56:29.880Z,18.90
2022-08-12T05:58:59.357Z,19.00
2022-08-12T06:02:08.787Z,19.10
2022-08-12T06:04:16.265Z,19.20
2022-08-12T06:06:44.997Z,19.30
2022-08-12T06:09:14.171Z,19.40
2022-08-12T06:12:04.371Z,19.50
2022-08-12T06:14:31.684Z,19.70
2022-08-12T06:16:59.913Z,19.70
2022-08-12T06:20:22.722Z,19.80
2022-08-12T06:22:17.549Z,20.00
2022-08-12T06:24:48.376Z,20.10
2022-08-12T06:27:18.777Z,20.20
2022-08-12T06:30:07.924Z,20.30
2022-08-12T06:32:35.318Z,20.30
2022-08-12T06:35:27.057Z,20.40
2022-08-12T06:37:56.637Z,20.60
2022-08-12T06:40:44.574Z,20.80
2022-08-12T06:43:14.146Z,20.80
2022-08-12T06:45:46.757Z,20.90
2022-08-12T06:48:16.450Z,21.00
2022-08-12T06:50:44.398Z,21.10
2022-08-12T06:53:12.389Z,21.20
2022-08-12T06:55:56.771Z,21.40
2022-08-12T06:58:26.451Z,21.80
2022-08-12T07:00:55.964Z,22.00
2022-08-12T07:03:27.719Z,22.20
2022-08-12T07:05:57.177Z,22.40
2022-08-12T07:08:28.996Z,22.40
2022-08-12T07:11:01.129Z,22.50
2022-08-12T07:13:36.751Z,22.50
2022-08-12T07:16:24.786Z,22.50
2022-08-12T07:18:53.604Z,22.60
2022-08-12T07:21:21.726Z,22.70
2022-08-12T07:23:50.419Z,23.00
2022-08-12T07:26:21.921Z,23.20
2022-08-12T07:28:53.366Z,23.40
2022-08-12T07:31:21.211Z,23.60
2022-08-12T07:33:50.343Z,23.80
2022-08-12T07:36:18.357Z,23.90
2022-08-12T07:38:48.865Z,24.10
2022-08-12T07:41:22.029Z,24.30
2022-08-12T07:43:51.975Z,24.50
2022-08-12T07:46:21.742Z,24.60
2022-08-12T07:48:51.589Z,24.80
2022-08-12T07:51:25.037Z,25.00
2022-08-12T07:54:00.320Z,25.20
2022-08-12T07:56:32.044Z,25.50
2022-08-12T07:59:01.156Z,25.60
2022-08-12T08:01:29.254Z,25.90
2022-08-12T08:04:18.999Z,26.30
2022-08-12T08:06:48.524Z,26.90
2022-08-12T08:09:18.334Z,27.70
2022-08-12T08:12:05.650Z,28.20
2022-08-12T08:14:33.591Z,28.90
2022-08-12T08:17:03.407Z,29.30
2022-08-12T08:19:33.545Z,29.70
2022-08-12T08:22:16.576Z,30.10
2022-08-12T08:24:56.548Z,30.50
2022-08-12T08:27:26.418Z,30.80
2022-08-12T08:29:55.154Z,31.10
2022-08-12T08:32:24.503Z,31.30
2022-08-12T08:34:54.309Z,31.30
2022-08-12T08:37:22.674Z,31.60
2022-08-12T08:39:51.344Z,31.80
2022-08-12T08:42:36.459Z,32.20
2022-08-12T08:45:12.904Z,32.30
2022-08-12T08:47:44.614Z,32.50
2022-08-12T08:50:15.251Z,31.90
2022-08-12T08:52:43.298Z,32.40
2022-08-12T08:55:13.888Z,32.60
2022-08-12T09:00:32.968Z,33.00
2022-08-12T09:03:03.398Z,32.90
2022-08-12T09:06:03.005Z,32.80
2022-08-12T09:08:31.040Z,32.30
2022-08-12T09:16:57.203Z,33.10
2022-08-12T09:19:26.798Z,33.20
2022-08-12T09:21:57.269Z,33.10
2022-08-12T09:24:28.206Z,33.50
2022-08-12T09:30:10.264Z,33.10
2022-08-12T09:33:04.015Z,33.20
2022-08-12T09:35:28.519Z,33.40
2022-08-12T09:37:59.041Z,33.50
2022-08-12T09:41:02.044Z,33.90
2022-08-12T09:43:35.112Z,33.90
2022-08-12T09:46:07.083Z,34.00
2022-08-12T09:48:56.141Z,33.90
2022-08-12T09:51:37.684Z,34.00
2022-08-12T09:54:34.869Z,34.10
2022-08-12T09:58:07.151Z,34.00
2022-08-12T10:00:13.206Z,34.30
2022-08-12T10:02:44.946Z,34.10
2022-08-12T10:05:20.619Z,33.50
2022-08-12T10:07:48.657Z,33.30
2022-08-12T10:10:22.916Z,33.20
2022-08-12T10:13:14.021Z,33.00
2022-08-12T10:16:01.871Z,32.50
2022-08-12T10:18:35.713Z,32.40
2022-08-12T10:21:08.739Z,32.40
2022-08-12T10:23:39.890Z,32.70
2022-08-12T10:26:37.621Z,33.40
2022-08-12T10:30:01.356Z,33.70
2022-08-12T10:32:45.436Z,34.20
2022-08-12T10:35:09.220Z,34.80
2022-08-12T10:38:33.325Z,34.10
2022-08-12T10:40:32.187Z,34.20
2022-08-12T10:43:19.294Z,34.40
2022-08-12T10:45:49.726Z,34.50
2022-08-12T10:48:33.625Z,34.50
2022-08-12T10:52:02.982Z,34.70
2022-08-12T10:54:00.505Z,34.40
2022-08-12T10:56:34.866Z,34.80
2022-08-12T10:59:05.027Z,35.20
2022-08-12T11:04:17.288Z,35.70
2022-08-12T11:04:39.629Z,35.90
2022-08-12T11:08:35.973Z,35.60
2022-08-12T11:10:02.423Z,34.60
2022-08-12T11:12:57.084Z,34.30
2022-08-12T11:15:24.158Z,34.50
2022-08-12T11:18:03.196Z,35.40
2022-08-12T11:20:31.550Z,36.00
2022-08-12T11:23:04.209Z,36.00
2022-08-12T11:25:57.542Z,35.10
2022-08-12T11:28:34.222Z,35.10
2022-08-12T11:31:03.426Z,34.60
2022-08-12T11:34:04.767Z,34.60
2022-08-12T11:36:21.815Z,34.80
2022-08-12T11:38:51.311Z,34.70
2022-08-12T11:41:31.600Z,34.80
2022-08-12T11:44:31.987Z,34.70
2022-08-12T11:46:51.441Z,34.70
2022-08-12T11:49:26.898Z,33.90
2022-08-12T11:51:59.868Z,33.90
2022-08-12T11:54:29.776Z,33.70
2022-08-12T11:57:00.480Z,33.70
2022-08-12T12:02:20.820Z,33.50
2022-08-12T12:04:52.798Z,33.40
2022-08-12T12:07:22.868Z,33.00
2022-08-12T12:10:11.635Z,33.00
2022-08-12T12:12:49.663Z,32.70
2022-08-12T12:15:25.315Z,32.50
2022-08-12T12:18:05.503Z,32.80
2022-08-12T12:20:35.267Z,32.90
2022-08-12T12:23:04.140Z,32.70
2022-08-12T12:26:06.978Z,32.50
2022-08-12T12:28:37.657Z,32.50
2022-08-12T12:31:14.793Z,32.40
2022-08-12T12:33:58.297Z,32.50
2022-08-12T12:36:29.766Z,32.40
2022-08-12T12:38:57.740Z,32.10
2022-08-12T12:41:48.171Z,32.00
2022-08-12T12:44:25.496Z,31.80
2022-08-12T12:46:58.073Z,31.70
2022-08-12T12:49:26.097Z,31.50
2022-08-12T12:52:18.602Z,31.70
2022-08-12T12:54:52.693Z,31.60
2022-08-12T12:57:21.465Z,31.60
2022-08-12T13:00:15.665Z,31.60
2022-08-12T13:02:45.947Z,31.50
2022-08-12T13:05:27.813Z,31.40
2022-08-12T13:08:01.215Z,31.30
2022-08-12T13:10:36.606Z,31.30
2022-08-12T13:14:08.132Z,31.20
2022-08-12T13:15:59.596Z,31.10
2022-08-12T13:18:33.444Z,31.00
2022-08-12T13:21:02.421Z,31.00
2022-08-12T13:23:36.881Z,30.80
2022-08-12T13:26:07.720Z,30.70
2022-08-12T13:28:45.658Z,30.80
2022-08-12T13:31:25.171Z,30.80
2022-08-12T13:34:29.716Z,30.70
2022-08-12T13:36:43.388Z,30.80
2022-08-12T13:39:12.807Z,30.90
2022-08-12T13:41:44.442Z,30.90
2022-08-12T13:44:12.959Z,30.90
2022-08-12T13:46:42.420Z,30.80
2022-08-12T13:49:53.902Z,30.90
2022-08-12T13:52:01.304Z,30.60
2022-08-12T13:54:29.675Z,30.60
2022-08-12T13:56:57.961Z,30.60
2022-08-12T13:59:26.660Z,30.50
2022-08-12T14:01:57.425Z,30.40
2022-08-12T14:04:25.410Z,30.40
2022-08-12T14:06:55.277Z,30.40
2022-08-12T14:09:23.182Z,30.40
2022-08-12T14:11:59.621Z,30.40
2022-08-12T14:14:31.572Z,30.50
2022-08-12T14:17:10.171Z,30.30
2022-08-12T14:19:49.900Z,30.20
2022-08-12T14:22:21.589Z,30.30
2022-08-12T14:24:54.403Z,30.30
2022-08-12T14:28:03.532Z,30.30
2022-08-12T14:30:15.291Z,30.30
2022-08-12T14:32:46.538Z,30.40
2022-08-12T14:35:14.845Z,30.50
2022-08-12T14:37:55.868Z,30.50
2022-08-12T14:40:28.346Z,30.60
2022-08-12T14:42:57.402Z,30.40
2022-08-12T14:45:45.292Z,30.50
2022-08-12T14:48:18.359Z,30.50
2022-08-12T14:51:09.520Z,30.50
2022-08-12T14:59:56.301Z,30.40
2022-08-12T15:02:20.850Z,30.30
2022-08-12T15:04:59.137Z,30.40
2022-08-12T15:07:33.687Z,30.40
2022-08-12T15:10:13.322Z,30.40
2022-08-12T15:12:41.600Z,30.50
2022-08-12T15:15:10.554Z,30.40
2022-08-12T15:17:39.356Z,30.40
2022-08-12T15:20:31.940Z,30.30
2022-08-12T15:22:57.917Z,30.30
2022-08-12T15:25:26.052Z,30.30
2022-08-12T15:28:04.500Z,30.40
2022-08-12T15:30:37.110Z,30.40
2022-08-12T15:33:12.584Z,30.40
2022-08-12T15:35:52.158Z,30.50
2022-08-12T15:38:25.047Z,30.50
2022-08-12T15:40:55.091Z,30.50
2022-08-12T15:43:52.105Z,30.40
2022-08-12T15:46:15.925Z,30.30
2022-08-12T15:48:47.010Z,30.30
2022-08-12T15:51:58.567Z,30.30
2022-08-12T15:54:33.145Z,30.20
2022-08-12T15:57:05.555Z,30.20
2022-08-12T15:59:59.962Z,30.20
2022-08-12T16:02:21.612Z,30.20
2022-08-12T16:04:51.215Z,30.20
2022-08-12T16:07:29.672Z,30.10
2022-08-12T16:10:06.314Z,30.10
2022-08-12T16:12:43.516Z,30.00
2022-08-12T16:15:20.956Z,30.00
2022-08-12T16:18:15.414Z,29.90
2022-08-12T16:20:40.636Z,29.90
2022-08-12T16:23:36.453Z,29.80
2022-08-12T16:26:05.446Z,29.80
2022-08-12T16:28:34.969Z,29.90
2022-08-12T16:31:03.220Z,29.90
2022-08-12T16:33:35.901Z,29.90
2022-08-12T16:36:24.980Z,29.90
2022-08-12T16:38:54.161Z,29.90
2022-08-12T16:41:23.632Z,29.90
2022-08-12T16:43:53.389Z,29.80
2022-08-12T16:46:33.585Z,29.70
2022-08-12T16:49:08.625Z,29.70
2022-08-12T16:51:46.089Z,29.60
2022-08-12T16:54:18.470Z,29.60
2022-08-12T16:56:55.473Z,29.40
2022-08-12T16:59:53.365Z,29.40
2022-08-12T17:02:30.069Z,29.40
2022-08-12T17:05:03.754Z,29.40
2022-08-12T17:07:37.746Z,29.50
2022-08-12T17:10:09.801Z,29.40
2022-08-12T17:12:41.038Z,29.30
2022-08-12T17:15:21.434Z,29.20
2022-08-12T17:18:38.942Z,29.10
2022-08-12T17:20:48.447Z,29.10
2022-08-12T17:23:17.701Z,29.10
2022-08-12T17:25:51.828Z,29.00
2022-08-12T17:28:22.668Z,29.00
2022-08-12T17:30:57.383Z,28.90
2022-08-12T17:33:33.516Z,28.80
2022-08-12T17:36:05.803Z,28.90
2022-08-12T17:38:34.817Z,28.80
2022-08-12T17:41:22.305Z,28.70
2022-08-12T17:43:58.369Z,28.70
2022-08-12T17:46:32.175Z,28.60
2022-08-12T17:49:19.073Z,28.50
2022-08-12T17:52:02.573Z,28.50
2022-08-12T17:54:31.462Z,28.50
2022-08-12T17:57:06.680Z,28.50
2022-08-12T17:59:48.072Z,28.40
2022-08-12T18:02:25.590Z,28.30
2022-08-12T18:05:04.859Z,28.30
2022-08-12T18:07:35.729Z,28.20
2022-08-12T18:10:04.950Z,28.20
2022-08-12T18:12:50.847Z,28.10
2022-08-12T18:15:47.757Z,28.10
2022-08-12T18:18:16.877Z,28.10
2022-08-12T18:20:46.282Z,27.90
2022-08-12T18:23:14.180Z,27.90
2022-08-12T18:26:16.016Z,27.80
2022-08-12T18:28:47.996Z,27.80
2022-08-12T18:31:18.433Z,27.70
2022-08-12T18:33:47.856Z,27.60
2022-08-12T18:36:22.596Z,27.60
2022-08-12T18:38:55.815Z,27.50
2022-08-12T18:41:29.084Z,27.50
2022-08-12T18:44:05.262Z,27.40
2022-08-12T18:46:48.956Z,27.30
2022-08-12T18:49:30.377Z,27.20
2022-08-12T18:52:04.799Z,27.10
2022-08-12T18:54:35.902Z,27.10
2022-08-12T18:57:16.255Z,27.10
2022-08-12T19:00:00.998Z,27.10
2022-08-12T19:02:32.823Z,27.10
2022-08-12T19:05:05.373Z,26.90
2022-08-12T19:07:49.817Z,26.90
2022-08-12T19:10:29.386Z,26.80
2022-08-12T19:13:21.228Z,26.70
2022-08-12T19:15:54.705Z,26.60
2022-08-12T19:18:30.145Z,26.50
2022-08-12T19:21:00.380Z,26.50
2022-08-12T19:23:35.801Z,26.50
2022-08-12T19:26:03.622Z,26.50
2022-08-12T19:28:36.381Z,26.50
2022-08-12T19:31:55.848Z,26.30
2022-08-12T19:37:27.438Z,26.30
2022-08-12T19:40:09.950Z,26.20
2022-08-12T19:43:01.017Z,26.20
2022-08-12T19:45:43.804Z,26.20
2022-08-12T19:48:19.897Z,26.10
2022-08-12T19:50:50.634Z,26.10
2022-08-12T19:53:22.853Z,26.00
2022-08-12T19:55:53.016Z,26.00
2022-08-12T19:58:22.431Z,25.90
2022-08-12T20:00:52.885Z,25.90
2022-08-12T20:03:39.893Z,25.80
2022-08-12T20:06:14.171Z,25.80
2022-08-12T20:08:48.971Z,25.80
2022-08-12T20:12:11.082Z,25.80
2022-08-12T20:14:07.031Z,25.70
2022-08-12T20:17:01.659Z,25.60
2022-08-12T20:19:52.770Z,25.60
2022-08-12T20:22:24.129Z,25.60
2022-08-12T20:25:00.887Z,25.70
2022-08-12T20:28:02.962Z,25.60
2022-08-12T20:30:52.360Z,25.50
2022-08-12T20:33:19.080Z,25.40
2022-08-12T20:36:14.371Z,25.40
2022-08-12T20:38:42.075Z,25.30
2022-08-12T20:41:17.626Z,25.30
2022-08-12T20:43:50.269Z,25.30
2022-08-12T20:46:19.144Z,25.20
2022-08-12T20:48:54.872Z,25.10
2022-08-12T20:51:28.207Z,25.10
2022-08-12T20:54:18.413Z,25.10
2022-08-12T20:56:47.068Z,25.00
2022-08-12T20:59:20.236Z,25.00
2022-08-12T21:01:49.466Z,25.00
2022-08-12T21:04:39.594Z,24.90
2022-08-12T21:07:14.509Z,24.90
2022-08-12T21:09:47.518Z,24.90
2022-08-12T21:12:27.900Z,24.80
2022-08-12T21:15:04.496Z,24.70
2022-08-12T21:18:09.421Z,24.70
2022-08-12T21:20:36.992Z,24.60
2022-08-12T21:23:07.546Z,24.60
2022-08-12T21:25:35.909Z,24.60
2022-08-12T21:28:06.764Z,24.60
2022-08-12T21:30:37.659Z,24.60
2022-08-12T21:33:10.522Z,24.50
2022-08-12T21:35:39.907Z,24.50
2022-08-12T21:38:09.395Z,24.30
2022-08-12T21:40:52.597Z,24.30
2022-08-12T21:43:21.080Z,24.20
2022-08-12T21:46:01.146Z,24.20
2022-08-12T21:48:29.522Z,24.10
2022-08-12T21:50:57.391Z,24.10
2022-08-12T21:53:31.674Z,24.10
2022-08-12T21:56:20.547Z,24.00
2022-08-12T21:59:02.611Z,23.90
2022-08-12T22:01:30.556Z,23.90
2022-08-12T22:04:27.442Z,23.90
2022-08-12T22:06:56.242Z,23.90
2022-08-12T22:09:30.004Z,23.90
2022-08-12T22:12:29.126Z,23.90
2022-08-12T22:14:56.982Z,23.90
2022-08-12T22:17:33.811Z,23.90
2022-08-12T22:20:21.853Z,23.90
2022-08-12T22:22:56.048Z,23.90
2022-08-12T22:25:27.639Z,23.90
2022-08-12T22:28:12.975Z,23.80
2022-08-12T22:30:58.599Z,23.70
2022-08-12T22:33:26.464Z,23.60
2022-08-12T22:35:59.398Z,23.60
2022-08-12T22:38:29.648Z,23.60
2022-08-12T22:41:02.209Z,23.60
2022-08-12T22:44:00.217Z,23.80
2022-08-12T22:46:53.125Z,23.70
2022-08-12T22:49:22.558Z,23.70
2022-08-12T22:52:08.219Z,23.80
2022-08-12T22:54:37.472Z,23.70
2022-08-12T22:57:12.597Z,23.60
2022-08-12T22:59:55.474Z,23.70
2022-08-12T23:02:28.783Z,23.70
2022-08-12T23:04:57.459Z,23.70
2022-08-12T23:07:25.381Z,23.70
2022-08-12T23:09:54.771Z,23.60
2022-08-12T23:12:40.922Z,23.60
2022-08-12T23:15:15.464Z,23.50
2022-08-12T23:17:43.548Z,23.40
2022-08-12T23:20:14.983Z,23.50
2022-08-12T23:22:43.793Z,23.40
2022-08-12T23:25:32.775Z,23.30
2022-08-12T23:28:31.215Z,23.20
2022-08-12T23:31:04.151Z,23.20
2022-08-12T23:34:02.431Z,23.10
2022-08-12T23:36:39.811Z,23.00
2022-08-12T23:40:15.744Z,22.90
2022-08-12T23:42:16.678Z,22.80
2022-08-12T23:44:53.285Z,22.70
2022-08-12T23:47:22.787Z,22.50
2022-08-12T23:49:57.219Z,22.40
2022-08-12T23:52:34.195Z,22.40
2022-08-12T23:55:25.037Z,22.30
2022-08-12T23:58:22.581Z,22.30
